Terminal Aerodrome Forecast
Issued by NWS Melbourne, FL

Home | Current Version | Previous Version | Text Only | Print | Product List | Glossary On
Versions: 1 2 3 4 5 6 7 8 9 10 11 12 13 14
000
FTUS42 KMLB 231100 RRA
TAFDAB
TAF
KDAB 231145Z 2312/2412 16006KT P6SM VCSH SCT015 BKN025
      WS010/16037KT
      TEMPO 2312/2313 5SM -RA BR BKN007 BKN013 OVC020
     FM231500 16013G20KT P6SM BKN025
     FM231900 17014G22KT P6SM VCSH BKN035 BKN060
     FM240200 17006KT P6SM SCT035 BKN200
     FM240600 19005KT 5SM BR OVC003=

USA.gov is the U.S. government's official web portal to all federal, state and local government web resources and services.